Terminal Aerodrome Forecast
Issued by NWS

Home | Current Version | Previous Version | Text Only | Print | Product List | Glossary On
Versions: 1 2 3 4 5 6 7 8 9 10 11 12 13 14
109
FTUS43 KGRR 241743
TAFLAN
TAF
KLAN 241743Z 2418/2518 19012G20KT P6SM BKN020
     FM242300 21014KT P6SM VCTS BKN050CB
     FM250300 20009KT P6SM BKN110
     FM250900 22011KT P6SM BKN015=

USA.gov is the U.S. government's official web portal to all federal, state and local government web resources and services.